San Carlos, Texas
Current Conditions -  °F | °C
As of 3:53 PM on Thursday 27 Nov 2014 (Local Time) from KMFE Reporting Station
Clear Clear  
Wind Chill: 76°   Ceiling: Unl
Heat Index: 76°   Visibility: 10mi
Dew Point: 46°   Wind: 10mph
Humidity: 35%   Direction: 100°E
Pressure: 30.33"   Gusts: NA
Location:  26.2938°N, 98.1548°W
Report Text: KMFE 272153Z 10009KT 10SM CLR 24/08 A3033 RMK AO2 SLP270 T02440078
Loading
Personal Weather Stations






























Interactive Weather Map New forecast layout! Learn more

10-Day Weather Forecast

Advertisements
Track Severe Weather on mobile